sensor_id;sensor_type;location;lat;lon;timestamp;temperature;humidity
28336;DHT22;15592;53.656;7.276;2023-04-25T00:01:45;7.20;99.90
28336;DHT22;15592;53.656;7.276;2023-04-25T00:04:10;7.10;99.90
28336;DHT22;15592;53.656;7.276;2023-04-25T00:06:37;7.10;99.90
28336;DHT22;15592;53.656;7.276;2023-04-25T00:09:06;7.10;99.90
28336;DHT22;15592;53.656;7.276;2023-04-25T00:11:36;7.10;99.90
28336;DHT22;15592;53.656;7.276;2023-04-25T00:14:03;7.00;99.90
28336;DHT22;15592;53.656;7.276;2023-04-25T00:16:29;7.00;99.90
28336;DHT22;15592;53.656;7.276;2023-04-25T00:18:58;6.90;99.90
28336;DHT22;15592;53.656;7.276;2023-04-25T00:21:24;7.00;99.90
28336;DHT22;15592;53.656;7.276;2023-04-25T00:23:52;7.00;99.90
28336;DHT22;15592;53.656;7.276;2023-04-25T00:26:18;6.90;99.90
28336;DHT22;15592;53.656;7.276;2023-04-25T00:28:43;6.80;99.90
28336;DHT22;15592;53.656;7.276;2023-04-25T00:31:09;6.80;99.90
28336;DHT22;15592;53.656;7.276;2023-04-25T00:33:35;6.70;99.90
28336;DHT22;15592;53.656;7.276;2023-04-25T00:36:01;6.70;99.90
28336;DHT22;15592;53.656;7.276;2023-04-25T00:38:27;6.70;99.90
28336;DHT22;15592;53.656;7.276;2023-04-25T00:40:52;6.60;99.90
28336;DHT22;15592;53.656;7.276;2023-04-25T00:43:18;6.60;99.90
28336;DHT22;15592;53.656;7.276;2023-04-25T00:45:44;6.60;99.90
28336;DHT22;15592;53.656;7.276;2023-04-25T00:48:14;6.60;99.90
28336;DHT22;15592;53.656;7.276;2023-04-25T00:50:40;6.70;99.90
28336;DHT22;15592;53.656;7.276;2023-04-25T00:53:06;6.70;99.90
28336;DHT22;15592;53.656;7.276;2023-04-25T00:55:32;6.70;99.90
28336;DHT22;15592;53.656;7.276;2023-04-25T00:57:59;6.70;99.90
28336;DHT22;15592;53.656;7.276;2023-04-25T01:00:25;6.70;99.90
28336;DHT22;15592;53.656;7.276;2023-04-25T01:02:52;6.70;99.90
28336;DHT22;15592;53.656;7.276;2023-04-25T01:05:17;6.70;99.90
28336;DHT22;15592;53.656;7.276;2023-04-25T01:07:44;6.60;99.90
28336;DHT22;15592;53.656;7.276;2023-04-25T01:10:10;6.60;99.90
28336;DHT22;15592;53.656;7.276;2023-04-25T01:12:36;6.50;99.90
28336;DHT22;15592;53.656;7.276;2023-04-25T01:15:02;6.50;99.90
28336;DHT22;15592;53.656;7.276;2023-04-25T01:17:28;6.50;99.90
28336;DHT22;15592;53.656;7.276;2023-04-25T01:19:54;6.50;99.90
28336;DHT22;15592;53.656;7.276;2023-04-25T01:22:20;6.40;99.90
28336;DHT22;15592;53.656;7.276;2023-04-25T01:24:46;6.40;99.90
28336;DHT22;15592;53.656;7.276;2023-04-25T01:27:12;6.40;99.90
28336;DHT22;15592;53.656;7.276;2023-04-25T01:29:38;6.40;99.90
28336;DHT22;15592;53.656;7.276;2023-04-25T01:32:05;6.40;99.90
28336;DHT22;15592;53.656;7.276;2023-04-25T01:34:31;6.30;99.90
28336;DHT22;15592;53.656;7.276;2023-04-25T01:36:57;6.40;99.90
28336;DHT22;15592;53.656;7.276;2023-04-25T01:39:24;6.30;99.90
28336;DHT22;15592;53.656;7.276;2023-04-25T01:41:50;6.30;99.90
28336;DHT22;15592;53.656;7.276;2023-04-25T01:44:16;6.40;99.90
28336;DHT22;15592;53.656;7.276;2023-04-25T01:46:42;6.30;99.90
28336;DHT22;15592;53.656;7.276;2023-04-25T01:49:07;6.30;99.90
28336;DHT22;15592;53.656;7.276;2023-04-25T01:51:33;6.30;99.90
28336;DHT22;15592;53.656;7.276;2023-04-25T01:53:59;6.30;99.90
28336;DHT22;15592;53.656;7.276;2023-04-25T01:56:30;6.40;99.90
28336;DHT22;15592;53.656;7.276;2023-04-25T01:58:55;6.30;99.90
28336;DHT22;15592;53.656;7.276;2023-04-25T02:01:21;6.30;99.90
28336;DHT22;15592;53.656;7.276;2023-04-25T02:03:47;6.40;99.90
28336;DHT22;15592;53.656;7.276;2023-04-25T02:06:12;6.40;99.90
28336;DHT22;15592;53.656;7.276;2023-04-25T02:08:38;6.40;99.90
28336;DHT22;15592;53.656;7.276;2023-04-25T02:11:03;6.60;99.90
28336;DHT22;15592;53.656;7.276;2023-04-25T02:13:29;6.60;99.90
28336;DHT22;15592;53.656;7.276;2023-04-25T02:15:55;6.60;99.90
28336;DHT22;15592;53.656;7.276;2023-04-25T02:18:20;6.50;99.90
28336;DHT22;15592;53.656;7.276;2023-04-25T02:20:46;6.40;99.90
28336;DHT22;15592;53.656;7.276;2023-04-25T02:23:12;6.30;99.90
28336;DHT22;15592;53.656;7.276;2023-04-25T02:25:37;6.20;99.90
28336;DHT22;15592;53.656;7.276;2023-04-25T02:28:03;6.10;99.90
28336;DHT22;15592;53.656;7.276;2023-04-25T02:30:29;6.10;99.90
28336;DHT22;15592;53.656;7.276;2023-04-25T02:32:54;6.10;99.90
28336;DHT22;15592;53.656;7.276;2023-04-25T02:35:20;6.00;99.90
28336;DHT22;15592;53.656;7.276;2023-04-25T02:37:46;6.10;99.90
28336;DHT22;15592;53.656;7.276;2023-04-25T02:40:11;6.10;99.90
28336;DHT22;15592;53.656;7.276;2023-04-25T02:42:37;6.10;99.90
28336;DHT22;15592;53.656;7.276;2023-04-25T02:45:03;6.10;99.90
28336;DHT22;15592;53.656;7.276;2023-04-25T02:47:29;6.20;99.90
28336;DHT22;15592;53.656;7.276;2023-04-25T02:49:54;6.20;99.90
28336;DHT22;15592;53.656;7.276;2023-04-25T02:52:20;6.20;99.90
28336;DHT22;15592;53.656;7.276;2023-04-25T02:54:46;6.30;99.90
28336;DHT22;15592;53.656;7.276;2023-04-25T02:57:12;6.30;99.90
28336;DHT22;15592;53.656;7.276;2023-04-25T02:59:37;6.30;99.90
28336;DHT22;15592;53.656;7.276;2023-04-25T03:02:03;6.30;99.90
28336;DHT22;15592;53.656;7.276;2023-04-25T03:04:29;6.40;99.90
28336;DHT22;15592;53.656;7.276;2023-04-25T03:06:54;6.40;99.90
28336;DHT22;15592;53.656;7.276;2023-04-25T03:09:20;6.40;99.90
28336;DHT22;15592;53.656;7.276;2023-04-25T03:11:46;6.30;99.90
28336;DHT22;15592;53.656;7.276;2023-04-25T03:14:12;6.20;99.90
28336;DHT22;15592;53.656;7.276;2023-04-25T03:16:38;6.20;99.90
28336;DHT22;15592;53.656;7.276;2023-04-25T03:19:04;6.10;99.90
28336;DHT22;15592;53.656;7.276;2023-04-25T03:21:31;6.10;99.90
28336;DHT22;15592;53.656;7.276;2023-04-25T03:23:58;6.10;99.90
28336;DHT22;15592;53.656;7.276;2023-04-25T03:26:23;6.00;99.90
28336;DHT22;15592;53.656;7.276;2023-04-25T03:28:49;6.00;99.90
28336;DHT22;15592;53.656;7.276;2023-04-25T03:31:15;6.00;99.90
28336;DHT22;15592;53.656;7.276;2023-04-25T03:33:40;6.00;99.90
28336;DHT22;15592;53.656;7.276;2023-04-25T03:36:06;6.00;99.90
28336;DHT22;15592;53.656;7.276;2023-04-25T03:38:32;6.00;99.90
28336;DHT22;15592;53.656;7.276;2023-04-25T03:40:58;5.90;99.90
28336;DHT22;15592;53.656;7.276;2023-04-25T03:43:23;5.90;99.90
28336;DHT22;15592;53.656;7.276;2023-04-25T03:45:49;5.90;99.90
28336;DHT22;15592;53.656;7.276;2023-04-25T03:48:15;5.90;99.90
28336;DHT22;15592;53.656;7.276;2023-04-25T03:50:40;5.90;99.90
28336;DHT22;15592;53.656;7.276;2023-04-25T03:53:06;5.90;99.90
28336;DHT22;15592;53.656;7.276;2023-04-25T03:55:31;6.00;99.90
28336;DHT22;15592;53.656;7.276;2023-04-25T03:58:00;6.10;99.90
28336;DHT22;15592;53.656;7.276;2023-04-25T04:00:26;6.10;99.90
28336;DHT22;15592;53.656;7.276;2023-04-25T04:02:51;6.20;99.90
28336;DHT22;15592;53.656;7.276;2023-04-25T04:05:17;6.20;99.90
28336;DHT22;15592;53.656;7.276;2023-04-25T04:07:43;6.20;99.90
28336;DHT22;15592;53.656;7.276;2023-04-25T04:10:11;6.20;99.90
28336;DHT22;15592;53.656;7.276;2023-04-25T04:12:38;6.20;99.90
28336;DHT22;15592;53.656;7.276;2023-04-25T04:15:05;6.20;99.90
28336;DHT22;15592;53.656;7.276;2023-04-25T04:17:31;6.20;99.90
28336;DHT22;15592;53.656;7.276;2023-04-25T04:19:57;6.20;99.90
28336;DHT22;15592;53.656;7.276;2023-04-25T04:22:23;6.30;99.90
28336;DHT22;15592;53.656;7.276;2023-04-25T04:24:49;6.30;99.90
28336;DHT22;15592;53.656;7.276;2023-04-25T04:27:19;6.20;99.90
28336;DHT22;15592;53.656;7.276;2023-04-25T04:29:45;6.20;99.90
28336;DHT22;15592;53.656;7.276;2023-04-25T04:32:11;6.30;99.90
28336;DHT22;15592;53.656;7.276;2023-04-25T04:34:37;6.20;99.90
28336;DHT22;15592;53.656;7.276;2023-04-25T04:37:04;6.20;99.90
28336;DHT22;15592;53.656;7.276;2023-04-25T04:39:30;6.20;99.90
28336;DHT22;15592;53.656;7.276;2023-04-25T04:41:56;6.20;99.90
28336;DHT22;15592;53.656;7.276;2023-04-25T04:44:22;6.20;99.90
28336;DHT22;15592;53.656;7.276;2023-04-25T04:46:48;6.30;99.90
28336;DHT22;15592;53.656;7.276;2023-04-25T04:49:13;6.30;99.90
28336;DHT22;15592;53.656;7.276;2023-04-25T04:51:39;6.30;99.90
28336;DHT22;15592;53.656;7.276;2023-04-25T04:54:06;6.30;99.90
28336;DHT22;15592;53.656;7.276;2023-04-25T04:56:32;6.30;99.90
28336;DHT22;15592;53.656;7.276;2023-04-25T04:58:58;6.30;99.90
28336;DHT22;15592;53.656;7.276;2023-04-25T05:01:24;6.40;99.90
28336;DHT22;15592;53.656;7.276;2023-04-25T05:03:50;6.40;99.90
28336;DHT22;15592;53.656;7.276;2023-04-25T05:06:18;6.40;99.90
28336;DHT22;15592;53.656;7.276;2023-04-25T05:08:44;6.40;99.90
28336;DHT22;15592;53.656;7.276;2023-04-25T05:11:09;6.30;99.90
28336;DHT22;15592;53.656;7.276;2023-04-25T05:13:35;6.30;99.90
28336;DHT22;15592;53.656;7.276;2023-04-25T05:16:01;6.20;99.90
28336;DHT22;15592;53.656;7.276;2023-04-25T05:18:26;6.20;99.90
28336;DHT22;15592;53.656;7.276;2023-04-25T05:20:52;6.30;99.90
28336;DHT22;15592;53.656;7.276;2023-04-25T05:23:18;6.40;99.90
28336;DHT22;15592;53.656;7.276;2023-04-25T05:25:44;6.50;99.90
28336;DHT22;15592;53.656;7.276;2023-04-25T05:28:11;6.60;99.90
28336;DHT22;15592;53.656;7.276;2023-04-25T05:30:37;6.70;99.90
28336;DHT22;15592;53.656;7.276;2023-04-25T05:33:03;6.70;99.90
28336;DHT22;15592;53.656;7.276;2023-04-25T05:35:28;6.70;99.90
28336;DHT22;15592;53.656;7.276;2023-04-25T05:37:54;6.70;99.90
28336;DHT22;15592;53.656;7.276;2023-04-25T05:40:20;6.60;99.90
28336;DHT22;15592;53.656;7.276;2023-04-25T05:42:45;6.60;99.90
28336;DHT22;15592;53.656;7.276;2023-04-25T05:45:11;6.60;99.90
28336;DHT22;15592;53.656;7.276;2023-04-25T05:47:37;6.60;99.90
28336;DHT22;15592;53.656;7.276;2023-04-25T05:50:02;6.60;99.90
28336;DHT22;15592;53.656;7.276;2023-04-25T05:52:28;6.70;99.90
28336;DHT22;15592;53.656;7.276;2023-04-25T05:54:54;6.70;99.90
28336;DHT22;15592;53.656;7.276;2023-04-25T05:57:21;6.70;99.90
28336;DHT22;15592;53.656;7.276;2023-04-25T05:59:47;6.70;99.90
28336;DHT22;15592;53.656;7.276;2023-04-25T06:02:13;6.80;99.90
28336;DHT22;15592;53.656;7.276;2023-04-25T06:04:38;6.90;99.90
28336;DHT22;15592;53.656;7.276;2023-04-25T06:07:04;7.00;99.90
28336;DHT22;15592;53.656;7.276;2023-04-25T06:09:29;7.00;99.90
28336;DHT22;15592;53.656;7.276;2023-04-25T06:11:55;6.80;99.90
28336;DHT22;15592;53.656;7.276;2023-04-25T06:14:21;6.70;99.90
28336;DHT22;15592;53.656;7.276;2023-04-25T06:16:46;6.60;99.90
28336;DHT22;15592;53.656;7.276;2023-04-25T06:19:12;6.60;99.90
28336;DHT22;15592;53.656;7.276;2023-04-25T06:21:37;6.50;99.90
28336;DHT22;15592;53.656;7.276;2023-04-25T06:24:03;6.50;99.90
28336;DHT22;15592;53.656;7.276;2023-04-25T06:26:29;6.40;99.90
28336;DHT22;15592;53.656;7.276;2023-04-25T06:28:54;6.40;99.90
28336;DHT22;15592;53.656;7.276;2023-04-25T06:31:20;6.30;99.90
28336;DHT22;15592;53.656;7.276;2023-04-25T06:33:46;6.30;99.90
28336;DHT22;15592;53.656;7.276;2023-04-25T06:36:13;6.20;99.90
28336;DHT22;15592;53.656;7.276;2023-04-25T06:38:39;6.20;99.90
28336;DHT22;15592;53.656;7.276;2023-04-25T06:41:05;6.10;99.90
28336;DHT22;15592;53.656;7.276;2023-04-25T06:43:30;6.20;99.90
28336;DHT22;15592;53.656;7.276;2023-04-25T06:45:59;6.30;99.90
28336;DHT22;15592;53.656;7.276;2023-04-25T06:48:26;6.50;99.90
28336;DHT22;15592;53.656;7.276;2023-04-25T06:50:52;6.70;99.90
28336;DHT22;15592;53.656;7.276;2023-04-25T06:53:18;6.90;99.90
28336;DHT22;15592;53.656;7.276;2023-04-25T06:55:44;7.10;99.90
28336;DHT22;15592;53.656;7.276;2023-04-25T06:58:09;7.20;99.90
28336;DHT22;15592;53.656;7.276;2023-04-25T07:00:35;7.10;99.90
28336;DHT22;15592;53.656;7.276;2023-04-25T07:03:01;6.90;99.90
28336;DHT22;15592;53.656;7.276;2023-04-25T07:05:27;6.70;99.90
28336;DHT22;15592;53.656;7.276;2023-04-25T07:07:53;6.60;99.90
28336;DHT22;15592;53.656;7.276;2023-04-25T07:10:18;6.50;99.90
28336;DHT22;15592;53.656;7.276;2023-04-25T07:12:44;6.50;99.90
28336;DHT22;15592;53.656;7.276;2023-04-25T07:15:10;6.50;99.90
28336;DHT22;15592;53.656;7.276;2023-04-25T07:17:37;6.60;99.90
28336;DHT22;15592;53.656;7.276;2023-04-25T07:20:03;6.70;99.90
28336;DHT22;15592;53.656;7.276;2023-04-25T07:22:29;6.80;99.90
28336;DHT22;15592;53.656;7.276;2023-04-25T07:24:55;6.90;99.90
28336;DHT22;15592;53.656;7.276;2023-04-25T07:27:21;6.90;99.90
28336;DHT22;15592;53.656;7.276;2023-04-25T07:29:46;7.00;99.90
28336;DHT22;15592;53.656;7.276;2023-04-25T07:32:12;7.10;99.90
28336;DHT22;15592;53.656;7.276;2023-04-25T07:34:39;7.10;99.90
28336;DHT22;15592;53.656;7.276;2023-04-25T07:37:05;7.10;99.90
28336;DHT22;15592;53.656;7.276;2023-04-25T07:39:31;7.20;99.90
28336;DHT22;15592;53.656;7.276;2023-04-25T07:41:56;7.40;99.90
28336;DHT22;15592;53.656;7.276;2023-04-25T07:44:24;7.40;99.90
28336;DHT22;15592;53.656;7.276;2023-04-25T07:46:50;7.30;99.90
28336;DHT22;15592;53.656;7.276;2023-04-25T07:49:16;7.20;99.90
28336;DHT22;15592;53.656;7.276;2023-04-25T07:51:41;7.10;99.90
28336;DHT22;15592;53.656;7.276;2023-04-25T07:54:09;7.00;99.90
28336;DHT22;15592;53.656;7.276;2023-04-25T07:56:35;7.00;99.90
28336;DHT22;15592;53.656;7.276;2023-04-25T07:59:00;7.10;99.90
28336;DHT22;15592;53.656;7.276;2023-04-25T08:01:26;7.20;99.90
28336;DHT22;15592;53.656;7.276;2023-04-25T08:03:52;7.30;99.90
28336;DHT22;15592;53.656;7.276;2023-04-25T08:06:18;7.40;99.90
28336;DHT22;15592;53.656;7.276;2023-04-25T08:08:43;7.30;99.90
28336;DHT22;15592;53.656;7.276;2023-04-25T08:11:09;7.20;99.90
28336;DHT22;15592;53.656;7.276;2023-04-25T08:13:35;7.20;99.90
28336;DHT22;15592;53.656;7.276;2023-04-25T08:16:01;7.20;99.90
28336;DHT22;15592;53.656;7.276;2023-04-25T08:18:27;7.10;99.90
28336;DHT22;15592;53.656;7.276;2023-04-25T08:20:53;7.20;99.90
28336;DHT22;15592;53.656;7.276;2023-04-25T08:23:18;7.30;99.90
28336;DHT22;15592;53.656;7.276;2023-04-25T08:25:44;7.40;99.90
28336;DHT22;15592;53.656;7.276;2023-04-25T08:28:09;7.60;99.90
28336;DHT22;15592;53.656;7.276;2023-04-25T08:30:36;7.60;99.90
28336;DHT22;15592;53.656;7.276;2023-04-25T08:33:02;7.70;99.90
28336;DHT22;15592;53.656;7.276;2023-04-25T08:35:28;7.80;99.90
28336;DHT22;15592;53.656;7.276;2023-04-25T08:37:53;7.90;99.90
28336;DHT22;15592;53.656;7.276;2023-04-25T08:40:22;8.10;99.90
28336;DHT22;15592;53.656;7.276;2023-04-25T08:42:54;8.30;99.90
28336;DHT22;15592;53.656;7.276;2023-04-25T08:45:21;8.30;99.90
28336;DHT22;15592;53.656;7.276;2023-04-25T08:47:47;8.40;99.90
28336;DHT22;15592;53.656;7.276;2023-04-25T08:50:17;8.40;99.90
28336;DHT22;15592;53.656;7.276;2023-04-25T08:52:47;8.30;99.90
28336;DHT22;15592;53.656;7.276;2023-04-25T08:55:13;8.30;99.90
28336;DHT22;15592;53.656;7.276;2023-04-25T08:57:41;8.40;99.90
28336;DHT22;15592;53.656;7.276;2023-04-25T09:00:11;8.40;99.90
28336;DHT22;15592;53.656;7.276;2023-04-25T09:02:38;8.40;99.90
28336;DHT22;15592;53.656;7.276;2023-04-25T09:05:05;8.50;99.90
28336;DHT22;15592;53.656;7.276;2023-04-25T09:07:32;8.50;99.90
28336;DHT22;15592;53.656;7.276;2023-04-25T09:09:58;8.70;99.90
28336;DHT22;15592;53.656;7.276;2023-04-25T09:12:27;8.70;99.90
28336;DHT22;15592;53.656;7.276;2023-04-25T09:15:03;8.70;99.90
28336;DHT22;15592;53.656;7.276;2023-04-25T09:17:29;8.60;99.90
28336;DHT22;15592;53.656;7.276;2023-04-25T09:19:55;8.40;99.90
28336;DHT22;15592;53.656;7.276;2023-04-25T09:22:30;8.30;99.90
28336;DHT22;15592;53.656;7.276;2023-04-25T09:24:56;8.20;99.90
28336;DHT22;15592;53.656;7.276;2023-04-25T09:27:22;8.30;99.90
28336;DHT22;15592;53.656;7.276;2023-04-25T09:29:57;8.50;99.90
28336;DHT22;15592;53.656;7.276;2023-04-25T09:32:24;8.50;99.90
28336;DHT22;15592;53.656;7.276;2023-04-25T09:34:55;8.30;99.90
28336;DHT22;15592;53.656;7.276;2023-04-25T09:37:22;8.30;99.90
28336;DHT22;15592;53.656;7.276;2023-04-25T09:39:55;8.40;99.90
28336;DHT22;15592;53.656;7.276;2023-04-25T09:42:29;8.50;99.90
28336;DHT22;15592;53.656;7.276;2023-04-25T09:44:58;8.40;99.90
28336;DHT22;15592;53.656;7.276;2023-04-25T09:47:26;8.00;99.90
28336;DHT22;15592;53.656;7.276;2023-04-25T09:49:53;7.60;99.90
28336;DHT22;15592;53.656;7.276;2023-04-25T09:52:20;7.40;99.90
28336;DHT22;15592;53.656;7.276;2023-04-25T09:54:47;7.30;99.90
28336;DHT22;15592;53.656;7.276;2023-04-25T09:57:16;7.50;99.90
28336;DHT22;15592;53.656;7.276;2023-04-25T10:00:00;7.60;99.90
28336;DHT22;15592;53.656;7.276;2023-04-25T10:02:27;7.90;99.90
28336;DHT22;15592;53.656;7.276;2023-04-25T10:04:54;8.10;99.90
28336;DHT22;15592;53.656;7.276;2023-04-25T10:07:22;8.40;99.90
28336;DHT22;15592;53.656;7.276;2023-04-25T10:10:02;8.40;99.90
28336;DHT22;15592;53.656;7.276;2023-04-25T10:12:29;8.40;99.90
28336;DHT22;15592;53.656;7.276;2023-04-25T10:14:57;8.30;99.90
28336;DHT22;15592;53.656;7.276;2023-04-25T10:17:23;8.10;99.90
28336;DHT22;15592;53.656;7.276;2023-04-25T10:19:50;8.10;99.90
28336;DHT22;15592;53.656;7.276;2023-04-25T10:22:35;8.30;99.90
28336;DHT22;15592;53.656;7.276;2023-04-25T10:25:02;8.50;99.90
28336;DHT22;15592;53.656;7.276;2023-04-25T10:27:32;8.60;99.90
28336;DHT22;15592;53.656;7.276;2023-04-25T10:30:02;8.70;99.90
28336;DHT22;15592;53.656;7.276;2023-04-25T10:32:31;8.90;99.90
28336;DHT22;15592;53.656;7.276;2023-04-25T10:34:57;9.10;99.90
28336;DHT22;15592;53.656;7.276;2023-04-25T10:37:24;9.30;99.90
28336;DHT22;15592;53.656;7.276;2023-04-25T10:39:49;9.20;99.90
28336;DHT22;15592;53.656;7.276;2023-04-25T10:42:15;9.20;99.90
28336;DHT22;15592;53.656;7.276;2023-04-25T10:45:06;9.20;99.90
28336;DHT22;15592;53.656;7.276;2023-04-25T10:47:36;9.10;99.90
28336;DHT22;15592;53.656;7.276;2023-04-25T10:50:06;9.10;99.90
28336;DHT22;15592;53.656;7.276;2023-04-25T10:52:33;9.10;99.90
28336;DHT22;15592;53.656;7.276;2023-04-25T10:54:59;9.10;99.90
28336;DHT22;15592;53.656;7.276;2023-04-25T10:57:51;9.20;99.90
28336;DHT22;15592;53.656;7.276;2023-04-25T11:00:19;9.20;99.90
28336;DHT22;15592;53.656;7.276;2023-04-25T11:02:51;9.40;99.90
28336;DHT22;15592;53.656;7.276;2023-04-25T11:05:32;9.40;99.90
28336;DHT22;15592;53.656;7.276;2023-04-25T11:07:58;9.30;99.90
28336;DHT22;15592;53.656;7.276;2023-04-25T11:10:29;9.30;99.90
28336;DHT22;15592;53.656;7.276;2023-04-25T11:12:56;9.30;99.90
28336;DHT22;15592;53.656;7.276;2023-04-25T11:15:22;9.20;99.90
28336;DHT22;15592;53.656;7.276;2023-04-25T11:17:47;9.10;99.90
28336;DHT22;15592;53.656;7.276;2023-04-25T11:20:13;9.20;99.90
28336;DHT22;15592;53.656;7.276;2023-04-25T11:22:41;9.20;99.90
28336;DHT22;15592;53.656;7.276;2023-04-25T11:25:08;9.40;99.90
28336;DHT22;15592;53.656;7.276;2023-04-25T11:27:38;9.60;99.90
28336;DHT22;15592;53.656;7.276;2023-04-25T11:30:14;9.60;99.90
28336;DHT22;15592;53.656;7.276;2023-04-25T11:32:41;9.60;99.90
28336;DHT22;15592;53.656;7.276;2023-04-25T11:35:09;9.40;99.90
28336;DHT22;15592;53.656;7.276;2023-04-25T11:37:35;9.50;99.90
28336;DHT22;15592;53.656;7.276;2023-04-25T11:40:00;9.60;99.90
28336;DHT22;15592;53.656;7.276;2023-04-25T11:42:27;9.70;99.90
28336;DHT22;15592;53.656;7.276;2023-04-25T11:44:52;9.60;99.90
28336;DHT22;15592;53.656;7.276;2023-04-25T11:47:18;9.30;99.90
28336;DHT22;15592;53.656;7.276;2023-04-25T11:49:44;9.20;99.90
28336;DHT22;15592;53.656;7.276;2023-04-25T11:52:09;9.00;99.90
28336;DHT22;15592;53.656;7.276;2023-04-25T11:54:36;8.90;99.90
28336;DHT22;15592;53.656;7.276;2023-04-25T11:57:02;8.90;99.90
28336;DHT22;15592;53.656;7.276;2023-04-25T11:59:28;8.90;99.90
28336;DHT22;15592;53.656;7.276;2023-04-25T12:01:54;9.10;99.90
28336;DHT22;15592;53.656;7.276;2023-04-25T12:04:22;9.40;99.90
28336;DHT22;15592;53.656;7.276;2023-04-25T12:06:50;9.50;99.90
28336;DHT22;15592;53.656;7.276;2023-04-25T12:09:32;9.60;99.90
28336;DHT22;15592;53.656;7.276;2023-04-25T12:11:59;9.70;99.90
28336;DHT22;15592;53.656;7.276;2023-04-25T12:14:32;9.60;99.90
28336;DHT22;15592;53.656;7.276;2023-04-25T12:16:59;9.30;99.90
28336;DHT22;15592;53.656;7.276;2023-04-25T12:19:30;9.00;99.90
28336;DHT22;15592;53.656;7.276;2023-04-25T12:21:56;8.90;99.90
28336;DHT22;15592;53.656;7.276;2023-04-25T12:24:23;8.80;99.90
28336;DHT22;15592;53.656;7.276;2023-04-25T12:27:05;8.70;99.90
28336;DHT22;15592;53.656;7.276;2023-04-25T12:29:32;8.60;99.90
28336;DHT22;15592;53.656;7.276;2023-04-25T12:31:58;8.70;99.90
28336;DHT22;15592;53.656;7.276;2023-04-25T12:34:25;8.80;99.90
28336;DHT22;15592;53.656;7.276;2023-04-25T12:36:51;8.90;99.90
28336;DHT22;15592;53.656;7.276;2023-04-25T12:39:18;9.00;99.90
28336;DHT22;15592;53.656;7.276;2023-04-25T12:41:45;9.10;99.90
28336;DHT22;15592;53.656;7.276;2023-04-25T12:44:11;9.30;99.90
28336;DHT22;15592;53.656;7.276;2023-04-25T12:46:37;9.40;99.90
28336;DHT22;15592;53.656;7.276;2023-04-25T12:49:04;9.50;99.90
28336;DHT22;15592;53.656;7.276;2023-04-25T12:51:31;9.60;99.90
28336;DHT22;15592;53.656;7.276;2023-04-25T12:54:02;9.60;99.90
28336;DHT22;15592;53.656;7.276;2023-04-25T12:56:28;9.40;99.90
28336;DHT22;15592;53.656;7.276;2023-04-25T12:58:54;9.30;99.90
28336;DHT22;15592;53.656;7.276;2023-04-25T13:01:21;9.30;99.90
28336;DHT22;15592;53.656;7.276;2023-04-25T13:03:47;9.30;99.90
28336;DHT22;15592;53.656;7.276;2023-04-25T13:06:13;9.30;99.90
28336;DHT22;15592;53.656;7.276;2023-04-25T13:08:39;9.30;99.90
28336;DHT22;15592;53.656;7.276;2023-04-25T13:11:06;9.30;99.90
28336;DHT22;15592;53.656;7.276;2023-04-25T13:13:32;9.40;99.90
28336;DHT22;15592;53.656;7.276;2023-04-25T13:16:02;9.50;99.90
28336;DHT22;15592;53.656;7.276;2023-04-25T13:18:31;9.50;99.90
28336;DHT22;15592;53.656;7.276;2023-04-25T13:20:58;9.50;99.90
28336;DHT22;15592;53.656;7.276;2023-04-25T13:23:25;9.60;99.90
28336;DHT22;15592;53.656;7.276;2023-04-25T13:25:52;9.50;99.90
28336;DHT22;15592;53.656;7.276;2023-04-25T13:28:17;9.40;99.90
28336;DHT22;15592;53.656;7.276;2023-04-25T13:30:43;9.40;99.90
28336;DHT22;15592;53.656;7.276;2023-04-25T13:33:09;9.40;99.90
28336;DHT22;15592;53.656;7.276;2023-04-25T13:35:36;9.30;99.90
28336;DHT22;15592;53.656;7.276;2023-04-25T13:38:03;9.30;99.90
28336;DHT22;15592;53.656;7.276;2023-04-25T13:40:28;9.30;99.90
28336;DHT22;15592;53.656;7.276;2023-04-25T13:42:55;9.40;99.90
28336;DHT22;15592;53.656;7.276;2023-04-25T13:45:21;9.40;99.90
28336;DHT22;15592;53.656;7.276;2023-04-25T13:47:47;9.30;99.90
28336;DHT22;15592;53.656;7.276;2023-04-25T13:50:12;9.40;99.90
28336;DHT22;15592;53.656;7.276;2023-04-25T13:52:39;9.40;99.90
28336;DHT22;15592;53.656;7.276;2023-04-25T13:55:05;9.30;99.90
28336;DHT22;15592;53.656;7.276;2023-04-25T13:57:33;9.10;99.90
28336;DHT22;15592;53.656;7.276;2023-04-25T13:59:59;9.00;99.90
28336;DHT22;15592;53.656;7.276;2023-04-25T14:02:25;8.80;99.90
28336;DHT22;15592;53.656;7.276;2023-04-25T14:04:51;8.60;99.90
28336;DHT22;15592;53.656;7.276;2023-04-25T14:07:16;8.40;99.90
28336;DHT22;15592;53.656;7.276;2023-04-25T14:09:43;8.20;99.90
28336;DHT22;15592;53.656;7.276;2023-04-25T14:12:09;8.10;99.90
28336;DHT22;15592;53.656;7.276;2023-04-25T14:14:36;8.00;99.90
28336;DHT22;15592;53.656;7.276;2023-04-25T14:17:02;8.10;99.90
28336;DHT22;15592;53.656;7.276;2023-04-25T14:19:27;8.30;99.90
28336;DHT22;15592;53.656;7.276;2023-04-25T14:21:54;8.50;99.90
28336;DHT22;15592;53.656;7.276;2023-04-25T14:24:19;8.60;99.90
28336;DHT22;15592;53.656;7.276;2023-04-25T14:26:45;8.70;99.90
28336;DHT22;15592;53.656;7.276;2023-04-25T14:29:11;8.80;99.90
28336;DHT22;15592;53.656;7.276;2023-04-25T14:31:37;8.80;99.90
28336;DHT22;15592;53.656;7.276;2023-04-25T14:34:04;8.80;99.90
28336;DHT22;15592;53.656;7.276;2023-04-25T14:36:30;8.80;99.90
28336;DHT22;15592;53.656;7.276;2023-04-25T14:38:56;8.90;99.90
28336;DHT22;15592;53.656;7.276;2023-04-25T14:41:22;8.90;99.90
28336;DHT22;15592;53.656;7.276;2023-04-25T14:43:48;8.90;99.90
28336;DHT22;15592;53.656;7.276;2023-04-25T14:46:14;8.80;99.90
28336;DHT22;15592;53.656;7.276;2023-04-25T14:48:40;8.60;99.90
28336;DHT22;15592;53.656;7.276;2023-04-25T14:51:06;8.50;99.90
28336;DHT22;15592;53.656;7.276;2023-04-25T14:53:32;8.40;99.90
28336;DHT22;15592;53.656;7.276;2023-04-25T14:55:58;8.50;99.90
28336;DHT22;15592;53.656;7.276;2023-04-25T14:58:23;8.60;99.90
28336;DHT22;15592;53.656;7.276;2023-04-25T15:00:49;8.70;99.90
28336;DHT22;15592;53.656;7.276;2023-04-25T15:03:16;8.70;99.90
28336;DHT22;15592;53.656;7.276;2023-04-25T15:05:42;8.70;99.90
28336;DHT22;15592;53.656;7.276;2023-04-25T15:08:08;8.70;99.90
28336;DHT22;15592;53.656;7.276;2023-04-25T15:10:34;8.70;99.90
28336;DHT22;15592;53.656;7.276;2023-04-25T15:13:00;8.60;99.90
28336;DHT22;15592;53.656;7.276;2023-04-25T15:15:26;8.60;99.90
28336;DHT22;15592;53.656;7.276;2023-04-25T15:17:52;8.70;99.90
28336;DHT22;15592;53.656;7.276;2023-04-25T15:20:18;8.70;99.90
28336;DHT22;15592;53.656;7.276;2023-04-25T15:22:44;8.60;99.90
28336;DHT22;15592;53.656;7.276;2023-04-25T15:25:14;8.50;99.90
28336;DHT22;15592;53.656;7.276;2023-04-25T15:30:13;7.80;99.90
28336;DHT22;15592;53.656;7.276;2023-04-25T15:32:41;7.50;99.90
28336;DHT22;15592;53.656;7.276;2023-04-25T15:35:07;7.20;99.90
28336;DHT22;15592;53.656;7.276;2023-04-25T15:37:34;7.20;99.90
28336;DHT22;15592;53.656;7.276;2023-04-25T15:40:09;7.40;99.90
28336;DHT22;15592;53.656;7.276;2023-04-25T15:42:45;7.70;99.90
28336;DHT22;15592;53.656;7.276;2023-04-25T15:45:16;7.90;99.90